createdAt,value
2023-04-16T00:01:34.326Z,11.68
2023-04-16T00:04:01.069Z,11.66
2023-04-16T00:06:28.525Z,11.65
2023-04-16T00:08:54.897Z,11.66
2023-04-16T00:11:22.184Z,11.65
2023-04-16T00:13:48.995Z,11.66
2023-04-16T00:16:15.545Z,11.65
2023-04-16T00:18:42.080Z,11.65
2023-04-16T00:21:08.472Z,11.65
2023-04-16T00:23:34.848Z,11.65
2023-04-16T00:26:01.245Z,11.65
2023-04-16T00:28:27.694Z,11.66
2023-04-16T00:30:54.825Z,11.65
2023-04-16T00:33:21.437Z,11.63
2023-04-16T00:35:48.334Z,11.64
2023-04-16T00:38:15.005Z,11.63
2023-04-16T00:40:41.454Z,11.62
2023-04-16T00:43:07.873Z,11.62
2023-04-16T00:45:34.699Z,11.64
2023-04-16T00:48:01.656Z,11.64
2023-04-16T00:50:28.262Z,11.64
2023-04-16T00:52:56.383Z,11.64
2023-04-16T00:55:22.868Z,11.63
2023-04-16T00:57:49.251Z,11.63
2023-04-16T01:00:16.107Z,11.62
2023-04-16T01:02:42.853Z,11.62
2023-04-16T01:05:09.481Z,11.61
2023-04-16T01:07:35.848Z,11.59
2023-04-16T01:10:03.311Z,11.60
2023-04-16T01:12:29.717Z,11.58
2023-04-16T01:14:56.453Z,11.60
2023-04-16T01:17:22.847Z,11.59
2023-04-16T01:19:49.264Z,11.60
2023-04-16T01:22:16.261Z,11.59
2023-04-16T01:24:42.599Z,11.59
2023-04-16T01:27:08.930Z,11.58
2023-04-16T01:29:35.427Z,11.55
2023-04-16T01:32:01.929Z,11.56
2023-04-16T01:34:28.580Z,11.55
2023-04-16T01:36:55.435Z,11.54
2023-04-16T01:39:22.327Z,11.53
2023-04-16T01:41:48.778Z,11.53
2023-04-16T01:44:15.449Z,11.51
2023-04-16T01:46:41.967Z,11.50
2023-04-16T01:49:08.983Z,11.49
2023-04-16T01:51:35.437Z,11.49
2023-04-16T01:54:01.913Z,11.46
2023-04-16T01:56:28.300Z,11.46
2023-04-16T01:58:54.769Z,11.45
2023-04-16T02:01:21.354Z,11.44
2023-04-16T02:03:48.390Z,11.42
2023-04-16T02:06:15.417Z,11.41
2023-04-16T02:08:41.828Z,11.39
2023-04-16T02:11:08.219Z,11.39
2023-04-16T02:13:34.794Z,11.38
2023-04-16T02:16:01.329Z,11.37
2023-04-16T02:18:28.011Z,11.36
2023-04-16T02:20:54.382Z,11.37
2023-04-16T02:23:20.857Z,11.35
2023-04-16T02:25:47.674Z,11.34
2023-04-16T02:28:15.993Z,11.31
2023-04-16T02:30:42.982Z,11.31
2023-04-16T02:33:11.558Z,11.29
2023-04-16T02:35:39.260Z,11.27
2023-04-16T02:38:06.145Z,11.24
2023-04-16T02:40:32.671Z,11.21
2023-04-16T02:42:59.171Z,11.20
2023-04-16T02:45:25.599Z,11.19
2023-04-16T02:47:52.170Z,11.19
2023-04-16T02:50:18.778Z,11.19
2023-04-16T02:52:45.339Z,11.18
2023-04-16T02:55:12.009Z,11.19
2023-04-16T02:57:38.519Z,11.18
2023-04-16T03:00:05.592Z,11.16
2023-04-16T03:02:32.115Z,11.15
2023-04-16T03:04:58.549Z,11.14
2023-04-16T03:07:25.138Z,11.13
2023-04-16T03:09:51.792Z,11.10
2023-04-16T03:12:18.216Z,11.07
2023-04-16T03:14:44.604Z,11.05
2023-04-16T03:17:11.429Z,11.03
2023-04-16T03:19:37.831Z,11.00
2023-04-16T03:22:04.432Z,11.00
2023-04-16T03:24:30.998Z,10.98
2023-04-16T03:26:58.380Z,10.94
2023-04-16T03:29:26.642Z,10.93
2023-04-16T03:31:53.085Z,10.92
2023-04-16T03:34:19.519Z,10.91
2023-04-16T03:36:45.922Z,10.88
2023-04-16T03:39:12.436Z,10.87
2023-04-16T03:41:38.858Z,10.86
2023-04-16T03:44:05.371Z,10.82
2023-04-16T03:46:31.775Z,10.80
2023-04-16T03:48:58.205Z,10.78
2023-04-16T03:51:24.831Z,10.77
2023-04-16T03:53:51.538Z,10.76
2023-04-16T03:56:17.956Z,10.73
2023-04-16T03:58:44.303Z,10.71
2023-04-16T04:01:10.649Z,10.69
2023-04-16T04:03:37.139Z,10.69
2023-04-16T04:06:08.335Z,10.65
2023-04-16T04:08:34.737Z,10.66
2023-04-16T04:11:01.108Z,10.65
2023-04-16T04:13:27.525Z,10.65
2023-04-16T04:15:53.945Z,10.64
2023-04-16T04:18:20.380Z,10.63
2023-04-16T04:20:46.747Z,10.62
2023-04-16T04:23:13.083Z,10.61
2023-04-16T04:25:39.426Z,10.59
2023-04-16T04:28:05.845Z,10.58
2023-04-16T04:30:32.206Z,10.57
2023-04-16T04:32:58.790Z,10.58
2023-04-16T04:35:25.536Z,10.56
2023-04-16T04:37:52.005Z,10.55
2023-04-16T04:40:18.572Z,10.54
2023-04-16T04:42:45.079Z,10.51
2023-04-16T04:45:11.881Z,10.52
2023-04-16T04:47:38.474Z,10.50
2023-04-16T04:50:05.564Z,10.49
2023-04-16T04:52:32.044Z,10.48
2023-04-16T04:54:58.548Z,10.47
2023-04-16T04:57:25.053Z,10.46
2023-04-16T04:59:51.630Z,10.46
2023-04-16T05:02:18.350Z,10.46
2023-04-16T05:04:44.902Z,10.45
2023-04-16T05:07:11.542Z,10.45
2023-04-16T05:09:38.023Z,10.46
2023-04-16T05:12:04.740Z,10.46
2023-04-16T05:14:33.894Z,10.45
2023-04-16T05:17:00.693Z,10.45
2023-04-16T05:19:27.326Z,10.45
2023-04-16T05:21:54.410Z,10.43
2023-04-16T05:24:21.020Z,10.43
2023-04-16T05:26:47.528Z,10.43
2023-04-16T05:29:13.900Z,10.43
2023-04-16T05:31:41.027Z,10.42
2023-04-16T05:34:07.429Z,10.41
2023-04-16T05:36:34.101Z,10.40
2023-04-16T05:39:00.600Z,10.41
2023-04-16T05:41:27.035Z,10.41
2023-04-16T05:43:53.726Z,10.43
2023-04-16T05:46:20.141Z,10.43
2023-04-16T05:48:46.786Z,10.45
2023-04-16T05:51:13.321Z,10.46
2023-04-16T05:53:39.930Z,10.47
2023-04-16T05:56:06.926Z,10.48
2023-04-16T05:58:33.797Z,10.50
2023-04-16T06:01:01.184Z,10.50
2023-04-16T06:03:27.999Z,10.51
2023-04-16T06:05:54.670Z,10.52
2023-04-16T06:08:21.278Z,10.53
2023-04-16T06:10:47.976Z,10.53
2023-04-16T06:13:14.840Z,10.54
2023-04-16T06:15:41.437Z,10.57
2023-04-16T06:18:08.000Z,10.59
2023-04-16T06:20:34.600Z,10.60
2023-04-16T06:23:01.142Z,10.63
2023-04-16T06:25:27.603Z,10.64
2023-04-16T06:27:54.158Z,10.66
2023-04-16T06:30:20.974Z,10.68
2023-04-16T06:32:48.081Z,10.71
2023-04-16T06:35:14.734Z,10.73
2023-04-16T06:37:41.568Z,10.76
2023-04-16T06:40:08.651Z,10.78
2023-04-16T06:42:35.368Z,10.80
2023-04-16T06:45:01.949Z,10.84
2023-04-16T06:47:28.472Z,10.86
2023-04-16T06:49:55.224Z,10.89
2023-04-16T06:52:21.891Z,10.92
2023-04-16T06:54:48.624Z,10.94
2023-04-16T06:57:16.105Z,10.98
2023-04-16T06:59:42.851Z,11.00
2023-04-16T07:02:10.837Z,11.04
2023-04-16T07:04:37.503Z,11.08
2023-04-16T07:07:04.074Z,11.13
2023-04-16T07:09:30.567Z,11.18
2023-04-16T07:11:57.083Z,11.22
2023-04-16T07:14:23.645Z,11.26
2023-04-16T07:16:50.312Z,11.29
2023-04-16T07:19:16.760Z,11.34
2023-04-16T07:21:43.844Z,11.38
2023-04-16T07:24:11.670Z,11.43
2023-04-16T07:26:38.310Z,11.47
2023-04-16T07:29:04.819Z,11.52
2023-04-16T07:31:31.504Z,11.57
2023-04-16T07:33:58.524Z,11.62
2023-04-16T07:36:25.156Z,11.67
2023-04-16T07:38:51.634Z,11.71
2023-04-16T07:41:18.232Z,11.76
2023-04-16T07:43:44.708Z,11.82
2023-04-16T07:46:11.369Z,11.88
2023-04-16T07:48:37.964Z,11.92
2023-04-16T07:51:04.565Z,11.98
2023-04-16T07:53:33.489Z,12.05
2023-04-16T07:56:00.007Z,12.13
2023-04-16T07:58:26.545Z,12.20
2023-04-16T08:00:53.378Z,12.26
2023-04-16T08:03:23.562Z,12.32
2023-04-16T08:05:50.378Z,12.41
2023-04-16T08:08:21.539Z,12.49
2023-04-16T08:10:48.196Z,12.56
2023-04-16T08:13:14.707Z,12.62
2023-04-16T08:15:41.555Z,12.70
2023-04-16T08:18:12.895Z,12.76
2023-04-16T08:20:39.696Z,12.85
2023-04-16T08:23:06.341Z,12.93
2023-04-16T08:25:33.070Z,12.99
2023-04-16T08:27:59.683Z,13.03
2023-04-16T08:30:31.007Z,13.05
2023-04-16T08:32:57.847Z,13.07
2023-04-16T08:35:27.320Z,13.08
2023-04-16T08:37:54.250Z,13.11
2023-04-16T08:40:28.987Z,13.12
2023-04-16T08:42:59.348Z,13.14
2023-04-16T08:45:30.723Z,13.17
2023-04-16T08:47:57.388Z,13.22
2023-04-16T08:50:26.159Z,13.28
2023-04-16T08:52:57.945Z,13.36
2023-04-16T08:55:41.389Z,13.40
2023-04-16T08:58:15.926Z,13.52
2023-04-16T09:00:45.573Z,13.62
2023-04-16T09:03:13.376Z,13.72
2023-04-16T09:05:40.136Z,13.83
2023-04-16T09:08:07.240Z,13.92
2023-04-16T09:10:34.350Z,14.03
2023-04-16T09:13:01.294Z,14.15
2023-04-16T09:15:27.908Z,14.26
2023-04-16T09:17:54.511Z,14.40
2023-04-16T09:20:21.216Z,14.52
2023-04-16T09:22:48.464Z,14.62
2023-04-16T09:25:15.355Z,14.72
2023-04-16T09:27:42.524Z,14.83
2023-04-16T09:30:22.915Z,14.87
2023-04-16T09:32:51.163Z,14.96
2023-04-16T09:35:21.574Z,15.02
2023-04-16T09:37:58.160Z,15.05
2023-04-16T09:40:27.113Z,15.17
2023-04-16T09:42:57.566Z,15.25
2023-04-16T09:45:24.465Z,15.36
2023-04-16T09:47:51.123Z,15.46
2023-04-16T09:50:20.189Z,15.53
2023-04-16T09:52:51.354Z,15.56
2023-04-16T09:55:23.998Z,15.60
2023-04-16T09:57:58.784Z,15.62
2023-04-16T10:00:25.550Z,15.66
2023-04-16T10:03:04.075Z,15.60
2023-04-16T10:05:30.695Z,15.62
2023-04-16T10:08:01.449Z,15.57
2023-04-16T10:10:28.583Z,15.54
2023-04-16T10:12:55.988Z,15.49
2023-04-16T10:15:22.763Z,15.46
2023-04-16T10:17:51.160Z,15.44
2023-04-16T10:20:18.476Z,15.44
2023-04-16T10:22:45.240Z,15.43
2023-04-16T10:25:12.126Z,15.43
2023-04-16T10:27:40.784Z,15.44
2023-04-16T10:30:08.891Z,15.46
2023-04-16T10:35:19.539Z,15.53
2023-04-16T10:37:47.324Z,15.58
2023-04-16T10:40:27.525Z,15.61
2023-04-16T10:42:57.136Z,15.68
2023-04-16T10:45:32.007Z,15.71
2023-04-16T10:47:58.988Z,15.74
2023-04-16T10:50:33.793Z,15.78
2023-04-16T10:53:22.655Z,15.82
2023-04-16T10:56:19.380Z,15.91
2023-04-16T10:58:45.801Z,16.04
2023-04-16T11:01:14.355Z,16.11
2023-04-16T11:03:42.760Z,16.18
2023-04-16T11:06:26.459Z,16.21
2023-04-16T11:08:55.027Z,16.32
2023-04-16T11:11:22.181Z,16.35
2023-04-16T11:13:48.614Z,16.36
2023-04-16T11:16:16.879Z,16.39
2023-04-16T11:18:51.320Z,16.42
2023-04-16T11:21:19.474Z,16.50
2023-04-16T11:23:49.949Z,16.56
2023-04-16T11:26:28.263Z,16.57
2023-04-16T11:28:56.522Z,16.66
2023-04-16T11:31:23.775Z,16.70
2023-04-16T11:33:50.651Z,16.73
2023-04-16T11:36:17.169Z,16.78
2023-04-16T11:38:43.533Z,16.83
2023-04-16T11:41:11.064Z,16.86
2023-04-16T11:43:37.628Z,16.86
2023-04-16T11:46:16.716Z,16.82
2023-04-16T11:48:54.183Z,16.81
2023-04-16T11:51:21.788Z,16.80
2023-04-16T11:53:53.288Z,16.78
2023-04-16T11:56:30.556Z,16.76
2023-04-16T11:59:10.678Z,16.74
2023-04-16T12:01:39.124Z,16.79
2023-04-16T12:04:06.429Z,16.83
2023-04-16T12:06:36.073Z,16.88
2023-04-16T12:09:23.813Z,16.84
2023-04-16T12:11:50.369Z,16.89
2023-04-16T12:14:16.834Z,16.85
2023-04-16T12:16:43.283Z,16.80
2023-04-16T12:19:12.502Z,16.74
2023-04-16T12:21:43.767Z,16.68
2023-04-16T12:24:15.249Z,16.69
2023-04-16T12:26:44.537Z,16.71
2023-04-16T12:29:21.798Z,16.71
2023-04-16T12:31:49.520Z,16.80
2023-04-16T12:34:16.916Z,16.83
2023-04-16T12:36:44.823Z,16.80
2023-04-16T12:39:12.725Z,16.79
2023-04-16T12:41:40.735Z,16.78
2023-04-16T12:44:12.411Z,16.78
2023-04-16T12:46:40.541Z,16.77
2023-04-16T12:49:08.629Z,16.76
2023-04-16T12:51:35.778Z,16.73
2023-04-16T12:54:04.152Z,16.69
2023-04-16T12:56:30.951Z,16.64
2023-04-16T12:58:57.751Z,16.61
2023-04-16T13:01:24.194Z,16.59
2023-04-16T13:03:51.000Z,16.60
2023-04-16T13:06:17.806Z,16.63
2023-04-16T13:08:45.036Z,16.65
2023-04-16T13:11:11.703Z,16.65
2023-04-16T13:13:38.108Z,16.68
2023-04-16T13:16:06.612Z,16.70
2023-04-16T13:18:33.087Z,16.71
2023-04-16T13:20:59.688Z,16.71
2023-04-16T13:23:26.116Z,16.70
2023-04-16T13:25:53.126Z,16.67
2023-04-16T13:28:19.518Z,16.67
2023-04-16T13:30:47.013Z,16.70
2023-04-16T13:33:13.364Z,16.80
2023-04-16T13:35:39.725Z,16.91
2023-04-16T13:38:06.064Z,17.04
2023-04-16T13:40:32.443Z,17.13
2023-04-16T13:42:58.875Z,17.20
2023-04-16T13:45:26.745Z,17.20
2023-04-16T13:47:54.043Z,17.14
2023-04-16T13:50:20.636Z,17.08
2023-04-16T13:52:47.081Z,16.98
2023-04-16T13:55:18.978Z,16.87
2023-04-16T13:57:47.345Z,16.77
2023-04-16T14:00:17.264Z,16.67
2023-04-16T14:02:45.805Z,16.63
2023-04-16T14:05:12.380Z,16.61
2023-04-16T14:07:38.774Z,16.62
2023-04-16T14:10:05.683Z,16.62
2023-04-16T14:12:32.414Z,16.65
2023-04-16T14:14:58.942Z,16.67
2023-04-16T14:17:25.472Z,16.67
2023-04-16T14:19:51.861Z,16.66
2023-04-16T14:22:18.277Z,16.61
2023-04-16T14:24:44.705Z,16.58
2023-04-16T14:27:11.170Z,16.54
2023-04-16T14:29:38.158Z,16.51
2023-04-16T14:32:05.247Z,16.50
2023-04-16T14:34:31.791Z,16.49
2023-04-16T14:36:58.234Z,16.50
2023-04-16T14:39:24.916Z,16.52
2023-04-16T14:41:51.324Z,16.58
2023-04-16T14:44:17.743Z,16.68
2023-04-16T14:46:44.553Z,16.86
2023-04-16T14:49:12.365Z,17.05
2023-04-16T14:51:39.060Z,17.26
2023-04-16T14:54:05.701Z,17.41
2023-04-16T14:56:32.337Z,17.53
2023-04-16T14:58:58.747Z,17.62
2023-04-16T15:01:25.199Z,17.66
2023-04-16T15:03:51.864Z,17.68
2023-04-16T15:06:19.054Z,17.69
2023-04-16T15:08:45.720Z,17.70
2023-04-16T15:11:12.109Z,17.69
2023-04-16T15:13:38.964Z,17.68
2023-04-16T15:16:05.474Z,17.67
2023-04-16T15:18:32.727Z,17.68
2023-04-16T15:20:59.228Z,17.69
2023-04-16T15:23:25.569Z,17.71
2023-04-16T15:25:51.916Z,17.71
2023-04-16T15:28:18.224Z,17.71
2023-04-16T15:30:44.899Z,17.69
2023-04-16T15:33:12.204Z,17.67
2023-04-16T15:35:41.083Z,17.63
2023-04-16T15:38:08.143Z,17.61
2023-04-16T15:40:36.274Z,17.58
2023-04-16T15:43:02.832Z,17.58
2023-04-16T15:45:29.241Z,17.61
2023-04-16T15:47:55.902Z,17.62
2023-04-16T15:50:22.352Z,17.64
2023-04-16T15:52:49.246Z,17.65
2023-04-16T15:55:17.195Z,17.67
2023-04-16T15:57:43.703Z,17.67
2023-04-16T16:00:16.126Z,17.65
2023-04-16T16:02:44.677Z,17.64
2023-04-16T16:05:14.188Z,17.61
2023-04-16T16:07:41.583Z,17.57
2023-04-16T16:10:09.651Z,17.54
2023-04-16T16:12:36.817Z,17.52
2023-04-16T16:15:04.609Z,17.47
2023-04-16T16:17:32.785Z,17.44
2023-04-16T16:19:59.576Z,17.41
2023-04-16T16:22:26.189Z,17.38
2023-04-16T16:24:52.854Z,17.35
2023-04-16T16:27:19.826Z,17.32
2023-04-16T16:29:46.494Z,17.30
2023-04-16T16:32:13.092Z,17.26
2023-04-16T16:34:39.606Z,17.21
2023-04-16T16:37:06.418Z,17.13
2023-04-16T16:39:33.282Z,17.06
2023-04-16T16:42:00.048Z,16.99
2023-04-16T16:44:27.149Z,16.91
2023-04-16T16:46:54.071Z,16.86
2023-04-16T16:49:20.684Z,16.79
2023-04-16T16:51:48.191Z,16.73
2023-04-16T16:54:15.052Z,16.70
2023-04-16T16:56:41.584Z,16.65
2023-04-16T16:59:09.061Z,16.62
2023-04-16T17:01:35.875Z,16.60
2023-04-16T17:04:02.911Z,16.55
2023-04-16T17:06:29.760Z,16.53
2023-04-16T17:08:56.282Z,16.50
2023-04-16T17:11:22.846Z,16.46
2023-04-16T17:13:49.420Z,16.44
2023-04-16T17:16:17.673Z,16.39
2023-04-16T17:18:44.192Z,16.37
2023-04-16T17:21:10.803Z,16.34
2023-04-16T17:23:38.793Z,16.31
2023-04-16T17:26:07.195Z,16.27
2023-04-16T17:28:33.843Z,16.23
2023-04-16T17:31:01.563Z,16.17
2023-04-16T17:33:28.208Z,16.10
2023-04-16T17:35:54.794Z,16.01
2023-04-16T17:38:21.368Z,15.92
2023-04-16T17:40:47.908Z,15.83
2023-04-16T17:43:14.302Z,15.73
2023-04-16T17:45:40.988Z,15.65
2023-04-16T17:48:07.514Z,15.57
2023-04-16T17:50:34.085Z,15.49
2023-04-16T17:53:03.581Z,15.41
2023-04-16T17:55:31.108Z,15.34
2023-04-16T17:57:57.703Z,15.29
2023-04-16T18:00:24.152Z,15.22
2023-04-16T18:02:52.371Z,15.17
2023-04-16T18:05:19.792Z,15.11
2023-04-16T18:07:47.044Z,15.04
2023-04-16T18:10:13.566Z,15.00
2023-04-16T18:12:40.194Z,14.95
2023-04-16T18:15:07.345Z,14.93
2023-04-16T18:17:33.929Z,14.91
2023-04-16T18:20:00.384Z,14.88
2023-04-16T18:22:28.554Z,14.84
2023-04-16T18:24:55.451Z,14.83
2023-04-16T18:27:22.085Z,14.81
2023-04-16T18:29:49.471Z,14.78
2023-04-16T18:32:18.310Z,14.75
2023-04-16T18:35:01.921Z,14.73
2023-04-16T18:37:32.181Z,14.71
2023-04-16T18:39:59.448Z,14.70
2023-04-16T18:42:28.090Z,14.69
2023-04-16T18:44:55.209Z,14.67
2023-04-16T18:47:21.764Z,14.64
2023-04-16T18:49:48.322Z,14.63
2023-04-16T18:52:14.888Z,14.61
2023-04-16T18:54:41.688Z,14.58
2023-04-16T18:57:08.210Z,14.57
2023-04-16T18:59:34.751Z,14.55
2023-04-16T19:02:01.570Z,14.54
2023-04-16T19:04:28.236Z,14.52
2023-04-16T19:06:54.735Z,14.49
2023-04-16T19:09:21.312Z,14.46
2023-04-16T19:11:50.379Z,14.44
2023-04-16T19:14:16.968Z,14.42
2023-04-16T19:16:47.238Z,14.40
2023-04-16T19:19:14.343Z,14.38
2023-04-16T19:21:41.126Z,14.36
2023-04-16T19:24:14.153Z,14.32
2023-04-16T19:26:40.543Z,14.32
2023-04-16T19:29:07.276Z,14.34
2023-04-16T19:31:34.800Z,14.31
2023-04-16T19:34:01.375Z,14.27
2023-04-16T19:36:27.983Z,14.24
2023-04-16T19:38:54.483Z,14.22
2023-04-16T19:41:21.241Z,14.17
2023-04-16T19:43:47.692Z,14.15
2023-04-16T19:46:15.496Z,14.13
2023-04-16T19:48:42.199Z,14.12
2023-04-16T19:51:08.770Z,14.10
2023-04-16T19:53:35.908Z,14.07
2023-04-16T19:56:02.430Z,14.05
2023-04-16T19:58:29.034Z,14.04
2023-04-16T20:00:56.305Z,14.01
2023-04-16T20:03:22.874Z,13.99
2023-04-16T20:05:52.461Z,13.97
2023-04-16T20:08:19.079Z,13.97
2023-04-16T20:10:45.815Z,13.92
2023-04-16T20:13:13.695Z,13.91
2023-04-16T20:15:40.408Z,13.88
2023-04-16T20:18:08.711Z,13.87
2023-04-16T20:20:36.738Z,13.84
2023-04-16T20:23:03.388Z,13.83
2023-04-16T20:25:30.073Z,13.81
2023-04-16T20:27:56.568Z,13.78
2023-04-16T20:30:28.746Z,13.77
2023-04-16T20:32:56.527Z,13.75
2023-04-16T20:35:23.242Z,13.75
2023-04-16T20:37:49.730Z,13.73
2023-04-16T20:40:16.420Z,13.73
2023-04-16T20:42:46.263Z,13.71
2023-04-16T20:45:13.067Z,13.71
2023-04-16T20:47:39.662Z,13.70
2023-04-16T20:50:06.786Z,13.70
2023-04-16T20:52:33.270Z,13.70
2023-04-16T20:54:59.758Z,13.70
2023-04-16T20:57:28.098Z,13.71
2023-04-16T20:59:54.737Z,13.73
2023-04-16T21:02:21.490Z,13.73
2023-04-16T21:04:48.256Z,13.73
2023-04-16T21:07:15.509Z,13.75
2023-04-16T21:09:42.094Z,13.76
2023-04-16T21:12:08.645Z,13.76
2023-04-16T21:14:35.229Z,13.76
2023-04-16T21:17:01.782Z,13.77
2023-04-16T21:19:28.370Z,13.77
2023-04-16T21:21:54.835Z,13.77
2023-04-16T21:24:21.329Z,13.78
2023-04-16T21:26:47.842Z,13.78
2023-04-16T21:29:14.479Z,13.77
2023-04-16T21:31:41.229Z,13.77
2023-04-16T21:34:07.854Z,13.77
2023-04-16T21:36:35.081Z,13.77
2023-04-16T21:39:01.869Z,13.75
2023-04-16T21:41:38.485Z,13.74
2023-04-16T21:44:05.236Z,13.76
2023-04-16T21:46:31.749Z,13.76
2023-04-16T21:48:58.490Z,13.74
2023-04-16T21:51:29.775Z,13.74
2023-04-16T21:53:56.706Z,13.73
2023-04-16T21:56:23.945Z,13.73
2023-04-16T21:58:50.673Z,13.72
2023-04-16T22:01:17.404Z,13.71
2023-04-16T22:03:44.101Z,13.69
2023-04-16T22:06:11.591Z,13.67
2023-04-16T22:08:38.065Z,13.66
2023-04-16T22:11:04.618Z,13.64
2023-04-16T22:13:36.527Z,13.64
2023-04-16T22:16:03.501Z,13.62
2023-04-16T22:18:33.109Z,13.62
2023-04-16T22:21:00.162Z,13.63
2023-04-16T22:23:26.858Z,13.62
2023-04-16T22:25:55.473Z,13.61
2023-04-16T22:28:22.530Z,13.61
2023-04-16T22:30:49.040Z,13.61
2023-04-16T22:33:18.045Z,13.60
2023-04-16T22:35:44.560Z,13.59
2023-04-16T22:38:11.009Z,13.58
2023-04-16T22:40:37.474Z,13.58
2023-04-16T22:43:04.586Z,13.54
2023-04-16T22:45:31.040Z,13.52
2023-04-16T22:47:57.477Z,13.51
2023-04-16T22:50:23.977Z,13.49
2023-04-16T22:52:50.447Z,13.48
2023-04-16T22:55:16.904Z,13.47
2023-04-16T22:57:43.336Z,13.46
2023-04-16T23:00:15.707Z,13.47
2023-04-16T23:02:42.376Z,13.46
2023-04-16T23:05:09.041Z,13.48
2023-04-16T23:07:35.403Z,13.47
2023-04-16T23:10:01.937Z,13.48
2023-04-16T23:12:28.316Z,13.48
2023-04-16T23:14:54.712Z,13.48
2023-04-16T23:17:21.089Z,13.46
2023-04-16T23:19:47.390Z,13.46
2023-04-16T23:22:13.677Z,13.43
2023-04-16T23:24:40.199Z,13.39
2023-04-16T23:27:06.534Z,13.38
2023-04-16T23:29:32.857Z,13.35
2023-04-16T23:31:59.191Z,13.32
2023-04-16T23:34:25.869Z,13.28
2023-04-16T23:36:52.213Z,13.26
2023-04-16T23:39:18.547Z,13.24
2023-04-16T23:41:45.006Z,13.21
2023-04-16T23:44:11.361Z,13.19
2023-04-16T23:46:39.182Z,13.16
2023-04-16T23:49:05.760Z,13.14
2023-04-16T23:51:32.094Z,13.12
2023-04-16T23:53:58.402Z,13.09
2023-04-16T23:56:24.782Z,13.06
2023-04-16T23:58:51.080Z,13.03
